sensor_id;sensor_type;location;lat;lon;timestamp;P1;P2;P0
67376;PMS7003;54261;46.086;6.588;2024-03-25T00:04:33;4.25;3.50;2.00
67376;PMS7003;54261;46.086;6.588;2024-03-25T00:09:34;2.00;2.00;1.00
67376;PMS7003;54261;46.086;6.588;2024-03-25T00:14:35;3.50;1.50;0.25
67376;PMS7003;54261;46.086;6.588;2024-03-25T00:19:36;2.50;2.50;1.50
67376;PMS7003;54261;46.086;6.588;2024-03-25T00:24:38;1.75;1.00;1.00
67376;PMS7003;54261;46.086;6.588;2024-03-25T00:29:39;1.00;1.00;1.00
67376;PMS7003;54261;46.086;6.588;2024-03-25T00:34:40;2.00;1.00;1.00
67376;PMS7003;54261;46.086;6.588;2024-03-25T00:39:41;1.50;1.50;1.00
67376;PMS7003;54261;46.086;6.588;2024-03-25T00:44:42;1.00;1.00;0.75
67376;PMS7003;54261;46.086;6.588;2024-03-25T00:49:43;2.00;2.00;0.00
67376;PMS7003;54261;46.086;6.588;2024-03-25T00:54:43;1.00;1.00;0.75
67376;PMS7003;54261;46.086;6.588;2024-03-25T00:59:44;1.50;1.50;1.00
67376;PMS7003;54261;46.086;6.588;2024-03-25T01:04:45;1.25;0.50;0.00
67376;PMS7003;54261;46.086;6.588;2024-03-25T01:09:46;2.00;0.50;0.00
67376;PMS7003;54261;46.086;6.588;2024-03-25T01:14:47;1.75;0.75;0.75
67376;PMS7003;54261;46.086;6.588;2024-03-25T01:19:48;0.00;0.00;0.00
67376;PMS7003;54261;46.086;6.588;2024-03-25T01:24:49;1.00;1.00;0.75
67376;PMS7003;54261;46.086;6.588;2024-03-25T01:29:50;1.75;0.75;0.00
67376;PMS7003;54261;46.086;6.588;2024-03-25T01:34:51;0.00;0.00;0.00
67376;PMS7003;54261;46.086;6.588;2024-03-25T01:39:51;1.00;0.00;0.00
67376;PMS7003;54261;46.086;6.588;2024-03-25T01:44:52;1.00;0.00;0.00
67376;PMS7003;54261;46.086;6.588;2024-03-25T01:49:54;0.00;0.00;0.00
67376;PMS7003;54261;46.086;6.588;2024-03-25T01:54:57;0.00;0.00;0.00
67376;PMS7003;54261;46.086;6.588;2024-03-25T01:59:58;0.00;0.00;0.00
67376;PMS7003;54261;46.086;6.588;2024-03-25T02:05:00;0.00;0.00;0.00
67376;PMS7003;54261;46.086;6.588;2024-03-25T02:10:06;0.00;0.00;0.00
67376;PMS7003;54261;46.086;6.588;2024-03-25T02:15:08;0.25;0.25;0.25
67376;PMS7003;54261;46.086;6.588;2024-03-25T02:20:10;0.00;0.00;0.00
67376;PMS7003;54261;46.086;6.588;2024-03-25T02:25:12;0.00;0.00;0.00
67376;PMS7003;54261;46.086;6.588;2024-03-25T02:30:16;1.00;1.00;0.00
67376;PMS7003;54261;46.086;6.588;2024-03-25T02:35:17;1.25;0.25;0.00
67376;PMS7003;54261;46.086;6.588;2024-03-25T02:40:18;0.75;0.75;0.25
67376;PMS7003;54261;46.086;6.588;2024-03-25T02:45:21;1.75;1.00;0.00
67376;PMS7003;54261;46.086;6.588;2024-03-25T02:50:22;0.00;0.00;0.00
67376;PMS7003;54261;46.086;6.588;2024-03-25T02:55:23;0.00;0.00;0.00
67376;PMS7003;54261;46.086;6.588;2024-03-25T03:00:23;0.00;0.00;0.00
67376;PMS7003;54261;46.086;6.588;2024-03-25T03:05:24;0.00;0.00;0.00
67376;PMS7003;54261;46.086;6.588;2024-03-25T03:10:25;0.00;0.00;0.00
67376;PMS7003;54261;46.086;6.588;2024-03-25T03:15:26;0.00;0.00;0.00
67376;PMS7003;54261;46.086;6.588;2024-03-25T03:20:27;1.00;1.00;0.00
67376;PMS7003;54261;46.086;6.588;2024-03-25T03:25:28;0.00;0.00;0.00
67376;PMS7003;54261;46.086;6.588;2024-03-25T03:30:31;0.00;0.00;0.00
67376;PMS7003;54261;46.086;6.588;2024-03-25T03:35:33;0.50;0.00;0.00
67376;PMS7003;54261;46.086;6.588;2024-03-25T03:40:34;0.00;0.00;0.00
67376;PMS7003;54261;46.086;6.588;2024-03-25T03:45:35;0.00;0.00;0.00
67376;PMS7003;54261;46.086;6.588;2024-03-25T03:50:36;1.00;0.00;0.00
67376;PMS7003;54261;46.086;6.588;2024-03-25T03:55:37;0.00;0.00;0.00
67376;PMS7003;54261;46.086;6.588;2024-03-25T04:00:38;0.00;0.00;0.00
67376;PMS7003;54261;46.086;6.588;2024-03-25T04:05:38;0.00;0.00;0.00
67376;PMS7003;54261;46.086;6.588;2024-03-25T04:10:40;0.00;0.00;0.00
67376;PMS7003;54261;46.086;6.588;2024-03-25T04:15:41;0.00;0.00;0.00
67376;PMS7003;54261;46.086;6.588;2024-03-25T04:20:43;0.00;0.00;0.00
67376;PMS7003;54261;46.086;6.588;2024-03-25T04:25:44;0.00;0.00;0.00
67376;PMS7003;54261;46.086;6.588;2024-03-25T04:30:54;0.00;0.00;0.00
67376;PMS7003;54261;46.086;6.588;2024-03-25T04:35:56;0.00;0.00;0.00
67376;PMS7003;54261;46.086;6.588;2024-03-25T04:40:57;0.00;0.00;0.00
67376;PMS7003;54261;46.086;6.588;2024-03-25T04:46:00;0.00;0.00;0.00
67376;PMS7003;54261;46.086;6.588;2024-03-25T04:51:01;0.00;0.00;0.00
67376;PMS7003;54261;46.086;6.588;2024-03-25T04:56:02;0.00;0.00;0.00
67376;PMS7003;54261;46.086;6.588;2024-03-25T05:01:04;0.00;0.00;0.00
67376;PMS7003;54261;46.086;6.588;2024-03-25T05:06:05;1.00;0.00;0.00
67376;PMS7003;54261;46.086;6.588;2024-03-25T05:11:09;1.00;0.00;0.00
67376;PMS7003;54261;46.086;6.588;2024-03-25T05:16:10;0.00;0.00;0.00
67376;PMS7003;54261;46.086;6.588;2024-03-25T05:21:11;0.00;0.00;0.00
67376;PMS7003;54261;46.086;6.588;2024-03-25T05:26:12;4.00;0.00;0.00
67376;PMS7003;54261;46.086;6.588;2024-03-25T05:31:13;0.00;0.00;0.00
67376;PMS7003;54261;46.086;6.588;2024-03-25T05:36:15;1.00;0.00;0.00
67376;PMS7003;54261;46.086;6.588;2024-03-25T05:41:16;0.00;0.00;0.00
67376;PMS7003;54261;46.086;6.588;2024-03-25T05:46:17;1.00;1.00;1.00
67376;PMS7003;54261;46.086;6.588;2024-03-25T05:51:18;1.00;1.00;1.00
67376;PMS7003;54261;46.086;6.588;2024-03-25T05:56:21;2.25;2.25;1.00
67376;PMS7003;54261;46.086;6.588;2024-03-25T06:01:22;2.50;2.50;1.00
67376;PMS7003;54261;46.086;6.588;2024-03-25T06:06:23;0.00;0.00;0.00
67376;PMS7003;54261;46.086;6.588;2024-03-25T06:11:24;0.50;0.50;0.50
67376;PMS7003;54261;46.086;6.588;2024-03-25T06:16:25;1.75;0.25;0.00
67376;PMS7003;54261;46.086;6.588;2024-03-25T06:21:26;0.00;0.00;0.00
67376;PMS7003;54261;46.086;6.588;2024-03-25T06:26:28;1.00;0.00;0.00
67376;PMS7003;54261;46.086;6.588;2024-03-25T06:31:29;0.00;0.00;0.00
67376;PMS7003;54261;46.086;6.588;2024-03-25T06:36:49;1.00;1.00;1.00
67376;PMS7003;54261;46.086;6.588;2024-03-25T06:41:50;5.25;4.00;3.50
67376;PMS7003;54261;46.086;6.588;2024-03-25T06:46:51;0.00;0.00;0.00
67376;PMS7003;54261;46.086;6.588;2024-03-25T06:51:52;1.00;1.00;0.00
67376;PMS7003;54261;46.086;6.588;2024-03-25T06:56:53;0.00;0.00;0.00
67376;PMS7003;54261;46.086;6.588;2024-03-25T07:01:54;0.00;0.00;0.00
67376;PMS7003;54261;46.086;6.588;2024-03-25T07:06:55;0.00;0.00;0.00
67376;PMS7003;54261;46.086;6.588;2024-03-25T07:11:56;0.75;0.00;0.00
67376;PMS7003;54261;46.086;6.588;2024-03-25T07:16:57;1.00;0.00;0.00
67376;PMS7003;54261;46.086;6.588;2024-03-25T07:21:58;1.00;0.00;0.00
67376;PMS7003;54261;46.086;6.588;2024-03-25T07:26:59;0.00;0.00;0.00
67376;PMS7003;54261;46.086;6.588;2024-03-25T07:32:00;0.75;0.00;0.00
67376;PMS7003;54261;46.086;6.588;2024-03-25T07:37:01;0.00;0.00;0.00
67376;PMS7003;54261;46.086;6.588;2024-03-25T07:42:02;0.00;0.00;0.00
67376;PMS7003;54261;46.086;6.588;2024-03-25T07:47:03;0.00;0.00;0.00
67376;PMS7003;54261;46.086;6.588;2024-03-25T07:52:04;0.00;0.00;0.00
67376;PMS7003;54261;46.086;6.588;2024-03-25T07:57:06;0.00;0.00;0.00
67376;PMS7003;54261;46.086;6.588;2024-03-25T08:02:07;0.00;0.00;0.00
67376;PMS7003;54261;46.086;6.588;2024-03-25T08:07:08;1.00;1.00;1.00
67376;PMS7003;54261;46.086;6.588;2024-03-25T08:12:09;0.00;0.00;0.00
67376;PMS7003;54261;46.086;6.588;2024-03-25T08:17:10;1.00;0.00;0.00
67376;PMS7003;54261;46.086;6.588;2024-03-25T08:22:12;0.25;0.00;0.00
67376;PMS7003;54261;46.086;6.588;2024-03-25T08:27:13;0.00;0.00;0.00
67376;PMS7003;54261;46.086;6.588;2024-03-25T08:32:14;0.00;0.00;0.00
67376;PMS7003;54261;46.086;6.588;2024-03-25T08:37:15;0.00;0.00;0.00
67376;PMS7003;54261;46.086;6.588;2024-03-25T08:42:16;0.75;0.75;0.00
67376;PMS7003;54261;46.086;6.588;2024-03-25T08:47:17;0.00;0.00;0.00
67376;PMS7003;54261;46.086;6.588;2024-03-25T08:52:17;2.00;1.00;0.75
67376;PMS7003;54261;46.086;6.588;2024-03-25T08:57:18;0.00;0.00;0.00
67376;PMS7003;54261;46.086;6.588;2024-03-25T09:02:19;0.00;0.00;0.00
67376;PMS7003;54261;46.086;6.588;2024-03-25T09:07:20;0.25;0.25;0.25
67376;PMS7003;54261;46.086;6.588;2024-03-25T09:12:21;0.00;0.00;0.00
67376;PMS7003;54261;46.086;6.588;2024-03-25T09:17:24;0.00;0.00;0.00
67376;PMS7003;54261;46.086;6.588;2024-03-25T09:22:25;0.75;0.75;0.00
67376;PMS7003;54261;46.086;6.588;2024-03-25T09:27:26;0.00;0.00;0.00
67376;PMS7003;54261;46.086;6.588;2024-03-25T09:32:27;1.00;1.00;0.00
67376;PMS7003;54261;46.086;6.588;2024-03-25T09:37:28;0.00;0.00;0.00
67376;PMS7003;54261;46.086;6.588;2024-03-25T09:42:46;0.75;0.25;0.25
67376;PMS7003;54261;46.086;6.588;2024-03-25T09:47:48;0.00;0.00;0.00
67376;PMS7003;54261;46.086;6.588;2024-03-25T09:52:51;0.50;0.00;0.00
67376;PMS7003;54261;46.086;6.588;2024-03-25T09:57:52;0.50;0.00;0.00
67376;PMS7003;54261;46.086;6.588;2024-03-25T10:02:54;1.00;1.00;0.50
67376;PMS7003;54261;46.086;6.588;2024-03-25T10:07:55;0.75;0.75;0.50
67376;PMS7003;54261;46.086;6.588;2024-03-25T10:12:56;0.25;0.00;0.00
67376;PMS7003;54261;46.086;6.588;2024-03-25T10:17:57;0.25;0.25;0.25
67376;PMS7003;54261;46.086;6.588;2024-03-25T10:22:58;1.00;1.00;1.00
67376;PMS7003;54261;46.086;6.588;2024-03-25T10:27:59;3.00;2.00;1.00
67376;PMS7003;54261;46.086;6.588;2024-03-25T10:33:02;0.00;0.00;0.00
67376;PMS7003;54261;46.086;6.588;2024-03-25T10:38:04;0.00;0.00;0.00
67376;PMS7003;54261;46.086;6.588;2024-03-25T10:43:11;0.00;0.00;0.00
67376;PMS7003;54261;46.086;6.588;2024-03-25T10:53:32;1.00;0.00;0.00
67376;PMS7003;54261;46.086;6.588;2024-03-25T10:58:37;2.00;2.00;1.00
67376;PMS7003;54261;46.086;6.588;2024-03-25T11:03:40;1.00;1.00;1.00
67376;PMS7003;54261;46.086;6.588;2024-03-25T11:08:41;0.75;0.75;0.75
67376;PMS7003;54261;46.086;6.588;2024-03-25T11:13:42;0.50;0.50;0.00
67376;PMS7003;54261;46.086;6.588;2024-03-25T11:18:50;1.00;1.00;0.00
67376;PMS7003;54261;46.086;6.588;2024-03-25T11:23:51;1.00;1.00;0.00
67376;PMS7003;54261;46.086;6.588;2024-03-25T11:28:53;1.00;1.00;1.00
67376;PMS7003;54261;46.086;6.588;2024-03-25T11:33:54;1.00;0.25;0.00
67376;PMS7003;54261;46.086;6.588;2024-03-25T11:38:59;2.00;1.00;1.00
67376;PMS7003;54261;46.086;6.588;2024-03-25T11:44:04;2.00;2.00;1.00
67376;PMS7003;54261;46.086;6.588;2024-03-25T11:49:05;2.00;1.00;1.00
67376;PMS7003;54261;46.086;6.588;2024-03-25T11:54:10;2.75;1.75;1.00
67376;PMS7003;54261;46.086;6.588;2024-03-25T11:59:11;2.50;1.25;1.00
67376;PMS7003;54261;46.086;6.588;2024-03-25T12:04:17;1.00;1.00;1.00
67376;PMS7003;54261;46.086;6.588;2024-03-25T12:09:18;2.00;2.00;1.25
67376;PMS7003;54261;46.086;6.588;2024-03-25T12:14:38;1.75;1.75;1.00
67376;PMS7003;54261;46.086;6.588;2024-03-25T12:19:39;4.00;3.00;3.00
67376;PMS7003;54261;46.086;6.588;2024-03-25T12:24:42;4.00;3.00;2.00
67376;PMS7003;54261;46.086;6.588;2024-03-25T12:29:42;2.00;2.00;2.00
67376;PMS7003;54261;46.086;6.588;2024-03-25T12:34:43;3.00;3.00;2.00
67376;PMS7003;54261;46.086;6.588;2024-03-25T12:39:47;4.75;3.75;2.00
67376;PMS7003;54261;46.086;6.588;2024-03-25T12:44:48;4.00;4.00;3.00
67376;PMS7003;54261;46.086;6.588;2024-03-25T12:49:49;3.50;3.00;2.00
67376;PMS7003;54261;46.086;6.588;2024-03-25T12:54:51;4.75;4.75;3.00
67376;PMS7003;54261;46.086;6.588;2024-03-25T12:59:52;3.25;3.25;2.75
67376;PMS7003;54261;46.086;6.588;2024-03-25T13:04:52;3.00;3.00;3.00
67376;PMS7003;54261;46.086;6.588;2024-03-25T13:09:54;5.25;4.00;3.00
67376;PMS7003;54261;46.086;6.588;2024-03-25T13:14:55;3.75;3.00;2.00
67376;PMS7003;54261;46.086;6.588;2024-03-25T13:19:56;3.25;3.25;2.00
67376;PMS7003;54261;46.086;6.588;2024-03-25T13:24:57;3.50;3.50;2.75
67376;PMS7003;54261;46.086;6.588;2024-03-25T13:29:58;7.00;4.25;3.00
67376;PMS7003;54261;46.086;6.588;2024-03-25T13:34:59;2.75;2.75;2.50
67376;PMS7003;54261;46.086;6.588;2024-03-25T13:40:02;4.50;3.00;1.75
67376;PMS7003;54261;46.086;6.588;2024-03-25T13:45:06;2.00;2.00;1.00
67376;PMS7003;54261;46.086;6.588;2024-03-25T13:50:07;2.00;2.00;1.75
67376;PMS7003;54261;46.086;6.588;2024-03-25T13:55:09;4.25;2.75;2.00
67376;PMS7003;54261;46.086;6.588;2024-03-25T14:00:10;4.00;3.00;2.50
67376;PMS7003;54261;46.086;6.588;2024-03-25T14:05:14;3.25;2.75;2.00
67376;PMS7003;54261;46.086;6.588;2024-03-25T14:10:15;2.25;2.00;1.00
67376;PMS7003;54261;46.086;6.588;2024-03-25T14:15:17;1.25;1.25;1.00
67376;PMS7003;54261;46.086;6.588;2024-03-25T14:20:18;3.25;1.75;1.50
67376;PMS7003;54261;46.086;6.588;2024-03-25T14:25:19;1.25;1.25;1.00
67376;PMS7003;54261;46.086;6.588;2024-03-25T14:30:20;2.25;2.25;2.00
67376;PMS7003;54261;46.086;6.588;2024-03-25T14:35:21;1.75;1.75;1.00
67376;PMS7003;54261;46.086;6.588;2024-03-25T14:40:22;2.50;2.00;1.50
67376;PMS7003;54261;46.086;6.588;2024-03-25T14:45:23;2.00;2.00;1.00
67376;PMS7003;54261;46.086;6.588;2024-03-25T14:50:24;3.75;3.75;3.00
67376;PMS7003;54261;46.086;6.588;2024-03-25T14:55:25;3.25;3.25;2.75
67376;PMS7003;54261;46.086;6.588;2024-03-25T15:00:26;2.00;2.00;2.00
67376;PMS7003;54261;46.086;6.588;2024-03-25T15:05:27;2.00;2.00;2.00
67376;PMS7003;54261;46.086;6.588;2024-03-25T15:10:28;4.00;2.00;1.75
67376;PMS7003;54261;46.086;6.588;2024-03-25T15:15:29;2.50;2.25;1.00
67376;PMS7003;54261;46.086;6.588;2024-03-25T15:20:34;2.75;2.75;2.00
67376;PMS7003;54261;46.086;6.588;2024-03-25T15:25:35;3.00;2.00;1.00
67376;PMS7003;54261;46.086;6.588;2024-03-25T15:30:36;2.00;2.00;2.00
67376;PMS7003;54261;46.086;6.588;2024-03-25T15:35:37;4.25;3.25;2.00
67376;PMS7003;54261;46.086;6.588;2024-03-25T15:40:38;4.00;3.00;3.00
67376;PMS7003;54261;46.086;6.588;2024-03-25T15:45:39;2.25;2.25;1.25
67376;PMS7003;54261;46.086;6.588;2024-03-25T15:50:40;2.00;2.00;2.00
67376;PMS7003;54261;46.086;6.588;2024-03-25T15:55:41;2.00;1.00;1.00
67376;PMS7003;54261;46.086;6.588;2024-03-25T16:00:43;5.75;5.75;5.25
67376;PMS7003;54261;46.086;6.588;2024-03-25T16:05:44;2.50;1.75;1.00
67376;PMS7003;54261;46.086;6.588;2024-03-25T16:10:45;3.00;2.00;1.75
67376;PMS7003;54261;46.086;6.588;2024-03-25T16:15:45;2.50;2.50;2.00
67376;PMS7003;54261;46.086;6.588;2024-03-25T16:20:46;2.00;2.00;2.00
67376;PMS7003;54261;46.086;6.588;2024-03-25T16:25:47;2.00;2.00;1.25
67376;PMS7003;54261;46.086;6.588;2024-03-25T16:30:48;1.00;1.00;1.00
67376;PMS7003;54261;46.086;6.588;2024-03-25T16:35:49;1.00;1.00;1.00
67376;PMS7003;54261;46.086;6.588;2024-03-25T16:40:52;1.25;1.25;1.00
67376;PMS7003;54261;46.086;6.588;2024-03-25T16:45:52;3.00;3.00;1.25
67376;PMS7003;54261;46.086;6.588;2024-03-25T16:50:53;2.25;2.25;2.00
67376;PMS7003;54261;46.086;6.588;2024-03-25T16:55:54;3.25;3.25;2.00
67376;PMS7003;54261;46.086;6.588;2024-03-25T17:00:55;2.00;2.00;1.00
67376;PMS7003;54261;46.086;6.588;2024-03-25T17:05:56;4.00;3.75;2.75
67376;PMS7003;54261;46.086;6.588;2024-03-25T17:10:57;3.00;3.00;2.00
67376;PMS7003;54261;46.086;6.588;2024-03-25T17:15:58;4.00;3.00;3.00
67376;PMS7003;54261;46.086;6.588;2024-03-25T17:20:59;11.00;8.25;5.50
67376;PMS7003;54261;46.086;6.588;2024-03-25T17:26:04;1.75;1.75;1.00
67376;PMS7003;54261;46.086;6.588;2024-03-25T17:31:06;4.75;3.75;3.00
67376;PMS7003;54261;46.086;6.588;2024-03-25T17:36:07;4.00;4.00;2.00
67376;PMS7003;54261;46.086;6.588;2024-03-25T17:41:09;3.50;3.50;2.75
67376;PMS7003;54261;46.086;6.588;2024-03-25T17:46:09;2.00;2.00;1.00
67376;PMS7003;54261;46.086;6.588;2024-03-25T17:51:10;4.25;1.00;1.00
67376;PMS7003;54261;46.086;6.588;2024-03-25T17:56:11;1.00;1.00;1.00
67376;PMS7003;54261;46.086;6.588;2024-03-25T18:01:12;3.00;3.00;2.00
67376;PMS7003;54261;46.086;6.588;2024-03-25T18:06:13;1.00;1.00;1.00
67376;PMS7003;54261;46.086;6.588;2024-03-25T18:11:14;7.50;7.50;6.25
67376;PMS7003;54261;46.086;6.588;2024-03-25T18:16:15;18.00;17.50;10.25
67376;PMS7003;54261;46.086;6.588;2024-03-25T18:21:16;4.25;4.25;3.50
67376;PMS7003;54261;46.086;6.588;2024-03-25T18:26:17;20.75;15.75;12.75
67376;PMS7003;54261;46.086;6.588;2024-03-25T18:31:18;17.50;16.25;13.00
67376;PMS7003;54261;46.086;6.588;2024-03-25T18:36:19;13.00;12.50;11.25
67376;PMS7003;54261;46.086;6.588;2024-03-25T18:41:20;13.50;13.00;10.00
67376;PMS7003;54261;46.086;6.588;2024-03-25T18:46:21;8.50;8.50;7.00
67376;PMS7003;54261;46.086;6.588;2024-03-25T18:51:22;8.25;7.00;6.00
67376;PMS7003;54261;46.086;6.588;2024-03-25T18:56:23;13.75;11.25;8.00
67376;PMS7003;54261;46.086;6.588;2024-03-25T19:01:24;12.00;11.25;7.50
67376;PMS7003;54261;46.086;6.588;2024-03-25T19:06:25;48.25;38.50;24.50
67376;PMS7003;54261;46.086;6.588;2024-03-25T19:11:26;83.50;65.25;42.00
67376;PMS7003;54261;46.086;6.588;2024-03-25T19:16:27;15.75;14.50;8.00
67376;PMS7003;54261;46.086;6.588;2024-03-25T19:21:27;51.75;44.75;29.00
67376;PMS7003;54261;46.086;6.588;2024-03-25T19:26:28;13.75;12.75;9.50
67376;PMS7003;54261;46.086;6.588;2024-03-25T19:31:30;28.50;26.50;19.25
67376;PMS7003;54261;46.086;6.588;2024-03-25T19:36:32;18.00;18.00;12.75
67376;PMS7003;54261;46.086;6.588;2024-03-25T19:41:34;17.50;14.25;9.25
67376;PMS7003;54261;46.086;6.588;2024-03-25T19:46:35;67.25;54.25;37.00
67376;PMS7003;54261;46.086;6.588;2024-03-25T19:51:35;33.25;31.50;21.75
67376;PMS7003;54261;46.086;6.588;2024-03-25T19:56:36;15.50;14.00;10.25
67376;PMS7003;54261;46.086;6.588;2024-03-25T20:01:37;24.25;19.75;14.00
67376;PMS7003;54261;46.086;6.588;2024-03-25T20:06:38;6.00;6.00;4.25
67376;PMS7003;54261;46.086;6.588;2024-03-25T20:11:39;9.25;7.50;6.00
67376;PMS7003;54261;46.086;6.588;2024-03-25T20:16:40;6.00;6.00;4.25
67376;PMS7003;54261;46.086;6.588;2024-03-25T20:21:41;5.50;5.50;3.25
67376;PMS7003;54261;46.086;6.588;2024-03-25T20:26:43;6.00;5.25;3.50
67376;PMS7003;54261;46.086;6.588;2024-03-25T20:31:44;4.25;4.25;3.00
67376;PMS7003;54261;46.086;6.588;2024-03-25T20:36:45;4.00;3.00;2.25
67376;PMS7003;54261;46.086;6.588;2024-03-25T20:41:46;9.50;8.00;7.00
67376;PMS7003;54261;46.086;6.588;2024-03-25T20:46:47;4.50;4.50;4.00
67376;PMS7003;54261;46.086;6.588;2024-03-25T20:51:48;5.00;4.25;3.00
67376;PMS7003;54261;46.086;6.588;2024-03-25T20:56:49;6.25;6.25;4.50
67376;PMS7003;54261;46.086;6.588;2024-03-25T21:01:50;6.75;5.00;3.50
67376;PMS7003;54261;46.086;6.588;2024-03-25T21:06:51;5.50;5.50;3.00
67376;PMS7003;54261;46.086;6.588;2024-03-25T21:11:51;7.00;6.00;5.00
67376;PMS7003;54261;46.086;6.588;2024-03-25T21:16:52;8.50;5.25;3.00
67376;PMS7003;54261;46.086;6.588;2024-03-25T21:21:54;1.00;1.00;0.00
67376;PMS7003;54261;46.086;6.588;2024-03-25T21:26:55;4.25;2.25;2.00
67376;PMS7003;54261;46.086;6.588;2024-03-25T21:31:55;12.25;10.00;7.00
67376;PMS7003;54261;46.086;6.588;2024-03-25T21:36:56;8.25;7.00;3.00
67376;PMS7003;54261;46.086;6.588;2024-03-25T21:41:57;7.00;3.00;3.00
67376;PMS7003;54261;46.086;6.588;2024-03-25T21:46:58;10.25;7.00;5.50
67376;PMS7003;54261;46.086;6.588;2024-03-25T21:52:00;9.25;7.75;6.25
67376;PMS7003;54261;46.086;6.588;2024-03-25T21:57:01;11.50;11.00;8.00
67376;PMS7003;54261;46.086;6.588;2024-03-25T22:02:02;11.25;11.25;8.50
67376;PMS7003;54261;46.086;6.588;2024-03-25T22:07:03;10.75;10.00;7.25
67376;PMS7003;54261;46.086;6.588;2024-03-25T22:12:04;13.25;12.00;10.00
67376;PMS7003;54261;46.086;6.588;2024-03-25T22:17:05;11.00;10.25;7.25
67376;PMS7003;54261;46.086;6.588;2024-03-25T22:22:07;11.00;10.25;8.00
67376;PMS7003;54261;46.086;6.588;2024-03-25T22:27:07;13.75;9.75;7.50
67376;PMS7003;54261;46.086;6.588;2024-03-25T22:32:08;12.25;10.00;7.00
67376;PMS7003;54261;46.086;6.588;2024-03-25T22:37:09;11.75;7.75;6.00
67376;PMS7003;54261;46.086;6.588;2024-03-25T22:42:10;9.50;7.00;6.00
67376;PMS7003;54261;46.086;6.588;2024-03-25T22:47:11;6.75;6.75;5.75
67376;PMS7003;54261;46.086;6.588;2024-03-25T22:52:12;11.75;9.75;7.50
67376;PMS7003;54261;46.086;6.588;2024-03-25T22:57:13;12.25;12.25;7.75
67376;PMS7003;54261;46.086;6.588;2024-03-25T23:02:14;14.50;12.75;8.25
67376;PMS7003;54261;46.086;6.588;2024-03-25T23:07:15;11.00;10.00;7.00
67376;PMS7003;54261;46.086;6.588;2024-03-25T23:12:18;7.50;6.25;4.50
67376;PMS7003;54261;46.086;6.588;2024-03-25T23:17:18;11.50;10.00;6.75
67376;PMS7003;54261;46.086;6.588;2024-03-25T23:22:19;5.75;5.75;5.25
67376;PMS7003;54261;46.086;6.588;2024-03-25T23:27:21;6.50;5.00;5.00
67376;PMS7003;54261;46.086;6.588;2024-03-25T23:32:22;6.25;6.25;4.75
67376;PMS7003;54261;46.086;6.588;2024-03-25T23:37:23;3.25;3.25;2.50
67376;PMS7003;54261;46.086;6.588;2024-03-25T23:42:24;7.25;6.00;5.00
67376;PMS7003;54261;46.086;6.588;2024-03-25T23:47:25;6.00;6.00;4.25
67376;PMS7003;54261;46.086;6.588;2024-03-25T23:52:26;5.25;4.25;3.00
67376;PMS7003;54261;46.086;6.588;2024-03-25T23:57:27;7.25;5.00;5.00
